sensor_id;sensor_type;location;lat;lon;timestamp;pressure;altitude;pressure_sealevel;temperature;humidity
52291;BME280;39663;45.432;28.050;2023-03-03T00:00:01;101740.11;;;5.84;43.27
52291;BME280;39663;45.432;28.050;2023-03-03T00:00:32;101739.14;;;5.95;41.43
52291;BME280;39663;45.432;28.050;2023-03-03T00:01:05;101737.84;;;6.01;41.64
52291;BME280;39663;45.432;28.050;2023-03-03T00:01:37;101739.90;;;5.96;41.63
52291;BME280;39663;45.432;28.050;2023-03-03T00:02:09;101737.94;;;5.99;41.30
52291;BME280;39663;45.432;28.050;2023-03-03T00:02:41;101740.08;;;5.82;40.97
52291;BME280;39663;45.432;28.050;2023-03-03T00:03:17;101738.45;;;6.01;41.77
52291;BME280;39663;45.432;28.050;2023-03-03T00:03:49;101738.85;;;5.70;40.98
52291;BME280;39663;45.432;28.050;2023-03-03T00:04:20;101738.75;;;5.95;41.76
52291;BME280;39663;45.432;28.050;2023-03-03T00:04:52;101739.01;;;5.63;41.17
52291;BME280;39663;45.432;28.050;2023-03-03T00:05:24;101737.62;;;5.73;41.25
52291;BME280;39663;45.432;28.050;2023-03-03T00:05:55;101738.44;;;5.99;41.83
52291;BME280;39663;45.432;28.050;2023-03-03T00:06:27;101738.78;;;6.07;41.04
52291;BME280;39663;45.432;28.050;2023-03-03T00:06:59;101738.60;;;5.52;41.97
52291;BME280;39663;45.432;28.050;2023-03-03T00:07:31;101738.33;;;5.34;43.07
52291;BME280;39663;45.432;28.050;2023-03-03T00:08:03;101740.26;;;4.99;43.58
52291;BME280;39663;45.432;28.050;2023-03-03T00:08:35;101737.76;;;4.85;43.21
52291;BME280;39663;45.432;28.050;2023-03-03T00:09:07;101733.83;;;5.08;42.80
52291;BME280;39663;45.432;28.050;2023-03-03T00:09:39;101736.53;;;4.91;43.12
52291;BME280;39663;45.432;28.050;2023-03-03T00:10:12;101733.42;;;4.99;43.03
52291;BME280;39663;45.432;28.050;2023-03-03T00:10:44;101731.86;;;4.93;42.53
52291;BME280;39663;45.432;28.050;2023-03-03T00:11:16;101732.85;;;4.89;42.64
52291;BME280;39663;45.432;28.050;2023-03-03T00:11:53;101730.65;;;4.47;43.67
52291;BME280;39663;45.432;28.050;2023-03-03T00:12:27;101725.66;;;5.19;43.29
52291;BME280;39663;45.432;28.050;2023-03-03T00:12:59;101724.80;;;5.09;42.42
52291;BME280;39663;45.432;28.050;2023-03-03T00:13:31;101726.46;;;5.21;42.95
52291;BME280;39663;45.432;28.050;2023-03-03T00:14:17;101725.38;;;4.93;43.53
52291;BME280;39663;45.432;28.050;2023-03-03T00:14:53;101726.78;;;5.13;43.26
52291;BME280;39663;45.432;28.050;2023-03-03T00:15:25;101725.18;;;4.33;43.95
52291;BME280;39663;45.432;28.050;2023-03-03T00:16:12;101724.73;;;4.86;43.61
52291;BME280;39663;45.432;28.050;2023-03-03T00:16:44;101726.65;;;4.77;44.30
52291;BME280;39663;45.432;28.050;2023-03-03T00:17:21;101726.19;;;4.97;44.33
52291;BME280;39663;45.432;28.050;2023-03-03T00:17:54;101724.41;;;4.89;43.19
52291;BME280;39663;45.432;28.050;2023-03-03T00:18:29;101724.44;;;5.24;42.97
52291;BME280;39663;45.432;28.050;2023-03-03T00:19:01;101723.83;;;4.20;44.02
52291;BME280;39663;45.432;28.050;2023-03-03T00:19:37;101723.41;;;4.53;44.10
52291;BME280;39663;45.432;28.050;2023-03-03T00:20:30;101721.82;;;4.67;44.25
52291;BME280;39663;45.432;28.050;2023-03-03T00:21:04;101720.24;;;4.56;43.46
52291;BME280;39663;45.432;28.050;2023-03-03T00:21:45;101719.05;;;4.69;43.43
52291;BME280;39663;45.432;28.050;2023-03-03T00:22:27;101719.25;;;5.18;43.44
52291;BME280;39663;45.432;28.050;2023-03-03T00:23:13;101718.18;;;4.83;43.73
52291;BME280;39663;45.432;28.050;2023-03-03T00:23:47;101715.87;;;4.93;43.65
52291;BME280;39663;45.432;28.050;2023-03-03T00:24:20;101715.85;;;4.74;43.83
52291;BME280;39663;45.432;28.050;2023-03-03T00:24:52;101716.80;;;4.82;44.07
52291;BME280;39663;45.432;28.050;2023-03-03T00:25:28;101714.89;;;5.07;43.45
52291;BME280;39663;45.432;28.050;2023-03-03T00:26:01;101714.75;;;4.66;43.66
52291;BME280;39663;45.432;28.050;2023-03-03T00:26:36;101711.71;;;4.58;43.91
52291;BME280;39663;45.432;28.050;2023-03-03T00:27:17;101710.60;;;4.43;43.74
52291;BME280;39663;45.432;28.050;2023-03-03T00:27:53;101712.96;;;3.62;45.22
52291;BME280;39663;45.432;28.050;2023-03-03T00:28:29;101711.80;;;3.83;44.86
52291;BME280;39663;45.432;28.050;2023-03-03T00:29:01;101712.31;;;2.65;46.93
52291;BME280;39663;45.432;28.050;2023-03-03T00:29:55;101710.51;;;3.80;45.79
52291;BME280;39663;45.432;28.050;2023-03-03T00:30:27;101706.99;;;3.88;45.41
52291;BME280;39663;45.432;28.050;2023-03-03T00:31:00;101705.58;;;3.88;45.16
52291;BME280;39663;45.432;28.050;2023-03-03T00:31:34;101706.27;;;4.13;44.74
52291;BME280;39663;45.432;28.050;2023-03-03T00:32:22;101705.55;;;3.94;45.07
52291;BME280;39663;45.432;28.050;2023-03-03T00:32:54;101704.91;;;3.83;45.94
52291;BME280;39663;45.432;28.050;2023-03-03T00:33:29;101703.70;;;3.76;45.57
52291;BME280;39663;45.432;28.050;2023-03-03T00:34:19;101703.55;;;3.73;45.58
52291;BME280;39663;45.432;28.050;2023-03-03T00:35:01;101702.03;;;3.94;45.35
52291;BME280;39663;45.432;28.050;2023-03-03T00:35:48;101701.63;;;4.02;45.08
52291;BME280;39663;45.432;28.050;2023-03-03T00:36:29;101703.04;;;4.38;45.28
52291;BME280;39663;45.432;28.050;2023-03-03T00:37:01;101701.37;;;4.43;44.82
52291;BME280;39663;45.432;28.050;2023-03-03T00:37:34;101702.72;;;4.35;45.49
52291;BME280;39663;45.432;28.050;2023-03-03T00:38:13;101707.10;;;3.68;46.35
52291;BME280;39663;45.432;28.050;2023-03-03T00:38:45;101704.82;;;3.62;46.14
52291;BME280;39663;45.432;28.050;2023-03-03T00:39:25;101706.65;;;2.71;47.99
52291;BME280;39663;45.432;28.050;2023-03-03T00:40:17;101705.16;;;3.10;47.57
52291;BME280;39663;45.432;28.050;2023-03-03T00:40:49;101700.80;;;3.89;45.81
52291;BME280;39663;45.432;28.050;2023-03-03T00:41:24;101698.94;;;4.30;45.56
52291;BME280;39663;45.432;28.050;2023-03-03T00:41:56;101697.79;;;4.07;46.11
52291;BME280;39663;45.432;28.050;2023-03-03T00:42:28;101696.24;;;4.06;45.85
52291;BME280;39663;45.432;28.050;2023-03-03T00:43:00;101697.05;;;4.31;46.56
52291;BME280;39663;45.432;28.050;2023-03-03T00:43:35;101691.97;;;4.49;45.08
52291;BME280;39663;45.432;28.050;2023-03-03T00:44:32;101693.67;;;4.11;45.23
52291;BME280;39663;45.432;28.050;2023-03-03T00:45:22;101695.00;;;3.71;46.08
52291;BME280;39663;45.432;28.050;2023-03-03T00:45:55;101696.34;;;2.69;47.96
52291;BME280;39663;45.432;28.050;2023-03-03T00:46:28;101698.15;;;2.21;48.70
52291;BME280;39663;45.432;28.050;2023-03-03T00:47:10;101699.31;;;2.09;49.04
52291;BME280;39663;45.432;28.050;2023-03-03T00:47:44;101694.87;;;2.74;48.30
52291;BME280;39663;45.432;28.050;2023-03-03T00:48:22;101693.21;;;2.70;48.20
52291;BME280;39663;45.432;28.050;2023-03-03T00:48:54;101692.33;;;2.98;47.87
52291;BME280;39663;45.432;28.050;2023-03-03T00:49:26;101690.65;;;3.41;47.11
52291;BME280;39663;45.432;28.050;2023-03-03T00:50:32;101688.80;;;2.78;47.70
52291;BME280;39663;45.432;28.050;2023-03-03T00:51:18;101685.45;;;3.51;46.83
52291;BME280;39663;45.432;28.050;2023-03-03T00:51:51;101686.68;;;3.35;47.13
52291;BME280;39663;45.432;28.050;2023-03-03T00:52:26;101681.85;;;3.69;47.62
52291;BME280;39663;45.432;28.050;2023-03-03T00:53:05;101680.14;;;3.70;47.23
52291;BME280;39663;45.432;28.050;2023-03-03T00:53:37;101678.25;;;3.95;47.16
52291;BME280;39663;45.432;28.050;2023-03-03T00:54:08;101674.09;;;4.27;46.73
52291;BME280;39663;45.432;28.050;2023-03-03T00:54:40;101674.04;;;4.43;45.67
52291;BME280;39663;45.432;28.050;2023-03-03T00:55:12;101672.93;;;4.44;45.11
52291;BME280;39663;45.432;28.050;2023-03-03T00:55:44;101672.45;;;3.99;45.64
52291;BME280;39663;45.432;28.050;2023-03-03T00:56:16;101676.48;;;3.28;48.20
52291;BME280;39663;45.432;28.050;2023-03-03T00:56:48;101676.39;;;3.01;47.88
52291;BME280;39663;45.432;28.050;2023-03-03T00:57:20;101671.92;;;3.47;47.15
52291;BME280;39663;45.432;28.050;2023-03-03T00:57:51;101671.01;;;3.50;46.89
52291;BME280;39663;45.432;28.050;2023-03-03T00:58:26;101670.35;;;4.02;46.14
52291;BME280;39663;45.432;28.050;2023-03-03T00:58:57;101670.01;;;3.99;46.82
52291;BME280;39663;45.432;28.050;2023-03-03T01:06:35;101662.41;;;4.60;45.87
52291;BME280;39663;45.432;28.050;2023-03-03T01:07:06;101662.33;;;4.74;44.69
52291;BME280;39663;45.432;28.050;2023-03-03T01:07:38;101660.92;;;4.48;44.89
52291;BME280;39663;45.432;28.050;2023-03-03T01:08:10;101660.04;;;4.24;45.10
52291;BME280;39663;45.432;28.050;2023-03-03T01:08:41;101659.87;;;4.60;44.61
52291;BME280;39663;45.432;28.050;2023-03-03T01:09:12;101659.90;;;4.72;44.37
52291;BME280;39663;45.432;28.050;2023-03-03T01:09:44;101656.55;;;4.68;44.62
52291;BME280;39663;45.432;28.050;2023-03-03T01:10:16;101654.92;;;4.16;45.09
52291;BME280;39663;45.432;28.050;2023-03-03T01:10:50;101655.47;;;4.40;44.81
52291;BME280;39663;45.432;28.050;2023-03-03T01:11:24;101653.71;;;4.72;44.55
52291;BME280;39663;45.432;28.050;2023-03-03T01:11:56;101651.53;;;4.48;44.92
52291;BME280;39663;45.432;28.050;2023-03-03T01:12:28;101652.45;;;4.38;44.91
52291;BME280;39663;45.432;28.050;2023-03-03T01:12:59;101653.86;;;3.43;46.63
52291;BME280;39663;45.432;28.050;2023-03-03T01:13:33;101654.86;;;3.91;46.29
52291;BME280;39663;45.432;28.050;2023-03-03T01:14:05;101651.17;;;3.94;46.12
52291;BME280;39663;45.432;28.050;2023-03-03T01:14:38;101647.20;;;4.13;45.64
52291;BME280;39663;45.432;28.050;2023-03-03T01:15:12;101646.13;;;4.08;46.86
52291;BME280;39663;45.432;28.050;2023-03-03T01:15:44;101645.40;;;4.34;46.59
52291;BME280;39663;45.432;28.050;2023-03-03T01:16:15;101643.54;;;4.46;45.73
52291;BME280;39663;45.432;28.050;2023-03-03T01:16:47;101644.04;;;4.71;46.28
52291;BME280;39663;45.432;28.050;2023-03-03T01:17:18;101642.94;;;4.63;45.61
52291;BME280;39663;45.432;28.050;2023-03-03T01:17:50;101642.36;;;4.92;44.99
52291;BME280;39663;45.432;28.050;2023-03-03T01:18:22;101640.58;;;4.93;45.29
52291;BME280;39663;45.432;28.050;2023-03-03T01:18:53;101639.61;;;4.92;44.50
52291;BME280;39663;45.432;28.050;2023-03-03T01:19:25;101640.60;;;5.01;43.50
52291;BME280;39663;45.432;28.050;2023-03-03T01:19:56;101639.45;;;4.49;43.66
52291;BME280;39663;45.432;28.050;2023-03-03T01:20:27;101639.94;;;4.86;44.96
52291;BME280;39663;45.432;28.050;2023-03-03T01:20:59;101639.61;;;5.27;44.49
52291;BME280;39663;45.432;28.050;2023-03-03T01:21:30;101640.04;;;5.23;43.66
52291;BME280;39663;45.432;28.050;2023-03-03T01:22:02;101638.72;;;5.15;43.71
52291;BME280;39663;45.432;28.050;2023-03-03T01:22:34;101640.82;;;5.40;43.92
52291;BME280;39663;45.432;28.050;2023-03-03T01:23:06;101639.77;;;5.54;43.43
52291;BME280;39663;45.432;28.050;2023-03-03T01:23:37;101638.06;;;5.38;43.49
52291;BME280;39663;45.432;28.050;2023-03-03T01:24:09;101637.20;;;5.52;43.33
52291;BME280;39663;45.432;28.050;2023-03-03T01:24:40;101638.03;;;5.83;42.82
52291;BME280;39663;45.432;28.050;2023-03-03T01:25:12;101638.84;;;5.68;43.66
52291;BME280;39663;45.432;28.050;2023-03-03T01:25:43;101639.28;;;5.73;42.76
52291;BME280;39663;45.432;28.050;2023-03-03T01:26:15;101637.57;;;6.15;42.95
52291;BME280;39663;45.432;28.050;2023-03-03T01:26:47;101634.38;;;6.03;42.80
52291;BME280;39663;45.432;28.050;2023-03-03T01:27:18;101638.18;;;6.16;42.61
52291;BME280;39663;45.432;28.050;2023-03-03T01:27:50;101634.05;;;6.25;42.26
52291;BME280;39663;45.432;28.050;2023-03-03T01:28:21;101633.39;;;6.23;42.40
52291;BME280;39663;45.432;28.050;2023-03-03T01:28:53;101631.68;;;6.28;41.56
52291;BME280;39663;45.432;28.050;2023-03-03T01:29:24;101632.05;;;6.26;42.11
52291;BME280;39663;45.432;28.050;2023-03-03T01:29:56;101630.69;;;6.28;41.97
52291;BME280;39663;45.432;28.050;2023-03-03T01:30:28;101630.29;;;6.36;42.50
52291;BME280;39663;45.432;28.050;2023-03-03T01:31:00;101627.61;;;6.41;41.41
52291;BME280;39663;45.432;28.050;2023-03-03T01:31:32;101628.25;;;6.33;41.19
52291;BME280;39663;45.432;28.050;2023-03-03T01:32:03;101629.12;;;6.46;42.28
52291;BME280;39663;45.432;28.050;2023-03-03T01:32:35;101629.04;;;6.34;41.15
52291;BME280;39663;45.432;28.050;2023-03-03T01:33:07;101629.26;;;6.31;40.80
52291;BME280;39663;45.432;28.050;2023-03-03T01:33:38;101626.48;;;6.25;41.64
52291;BME280;39663;45.432;28.050;2023-03-03T01:34:10;101627.48;;;6.38;41.19
52291;BME280;39663;45.432;28.050;2023-03-03T01:34:41;101628.07;;;6.10;41.69
52291;BME280;39663;45.432;28.050;2023-03-03T01:35:13;101627.11;;;6.07;40.83
52291;BME280;39663;45.432;28.050;2023-03-03T01:35:45;101627.39;;;6.21;40.73
52291;BME280;39663;45.432;28.050;2023-03-03T01:36:22;101627.81;;;6.35;40.81
52291;BME280;39663;45.432;28.050;2023-03-03T01:36:54;101629.60;;;6.12;41.38
52291;BME280;39663;45.432;28.050;2023-03-03T01:37:26;101630.46;;;6.04;41.47
52291;BME280;39663;45.432;28.050;2023-03-03T01:37:57;101630.34;;;5.86;41.41
52291;BME280;39663;45.432;28.050;2023-03-03T01:38:30;101630.31;;;5.91;41.15
52291;BME280;39663;45.432;28.050;2023-03-03T01:39:02;101632.38;;;5.63;41.35
52291;BME280;39663;45.432;28.050;2023-03-03T01:39:33;101632.41;;;5.48;41.67
52291;BME280;39663;45.432;28.050;2023-03-03T01:40:11;101633.85;;;5.23;42.11
52291;BME280;39663;45.432;28.050;2023-03-03T01:40:52;101633.36;;;5.43;42.77
52291;BME280;39663;45.432;28.050;2023-03-03T01:41:27;101631.76;;;5.35;42.10
52291;BME280;39663;45.432;28.050;2023-03-03T01:41:59;101632.82;;;5.29;43.07
52291;BME280;39663;45.432;28.050;2023-03-03T01:42:30;101631.34;;;5.40;42.25
52291;BME280;39663;45.432;28.050;2023-03-03T01:43:02;101631.60;;;5.46;41.85
52291;BME280;39663;45.432;28.050;2023-03-03T01:43:34;101632.81;;;5.46;41.50
52291;BME280;39663;45.432;28.050;2023-03-03T01:44:05;101631.79;;;4.95;42.16
52291;BME280;39663;45.432;28.050;2023-03-03T01:44:37;101635.41;;;5.08;42.34
52291;BME280;39663;45.432;28.050;2023-03-03T01:45:19;101634.76;;;5.20;42.29
52291;BME280;39663;45.432;28.050;2023-03-03T01:47:36;101635.03;;;5.08;43.06
52291;BME280;39663;45.432;28.050;2023-03-03T01:48:12;101634.79;;;4.55;43.66
52291;BME280;39663;45.432;28.050;2023-03-03T01:48:44;101635.22;;;4.63;43.54
52291;BME280;39663;45.432;28.050;2023-03-03T01:49:19;101633.91;;;4.72;43.38
52291;BME280;39663;45.432;28.050;2023-03-03T01:49:56;101635.09;;;4.67;43.90
52291;BME280;39663;45.432;28.050;2023-03-03T01:50:37;101632.11;;;4.45;43.88
52291;BME280;39663;45.432;28.050;2023-03-03T01:51:17;101633.16;;;4.48;44.04
52291;BME280;39663;45.432;28.050;2023-03-03T01:51:54;101631.52;;;4.38;44.76
52291;BME280;39663;45.432;28.050;2023-03-03T01:52:31;101631.40;;;4.40;44.43
52291;BME280;39663;45.432;28.050;2023-03-03T01:53:09;101634.52;;;3.35;45.84
52291;BME280;39663;45.432;28.050;2023-03-03T01:53:45;101629.65;;;3.89;45.40
52291;BME280;39663;45.432;28.050;2023-03-03T01:54:22;101629.73;;;4.29;44.84
52291;BME280;39663;45.432;28.050;2023-03-03T01:54:57;101626.47;;;4.51;44.54
52291;BME280;39663;45.432;28.050;2023-03-03T01:55:33;101625.45;;;4.58;44.34
52291;BME280;39663;45.432;28.050;2023-03-03T01:56:07;101625.73;;;4.30;44.66
52291;BME280;39663;45.432;28.050;2023-03-03T01:56:40;101625.09;;;4.10;45.28
52291;BME280;39663;45.432;28.050;2023-03-03T01:57:17;101623.87;;;4.28;45.89
52291;BME280;39663;45.432;28.050;2023-03-03T01:57:57;101624.59;;;4.12;45.72
52291;BME280;39663;45.432;28.050;2023-03-03T01:58:34;101623.39;;;4.20;45.27
52291;BME280;39663;45.432;28.050;2023-03-03T01:59:10;101623.51;;;4.34;45.41
52291;BME280;39663;45.432;28.050;2023-03-03T01:59:47;101622.85;;;4.16;46.00
52291;BME280;39663;45.432;28.050;2023-03-03T02:00:20;101625.47;;;4.37;45.66
52291;BME280;39663;45.432;28.050;2023-03-03T02:00:56;101625.30;;;4.44;45.73
52291;BME280;39663;45.432;28.050;2023-03-03T02:01:30;101627.19;;;4.60;45.72
52291;BME280;39663;45.432;28.050;2023-03-03T02:02:03;101628.59;;;4.33;45.95
52291;BME280;39663;45.432;28.050;2023-03-03T02:02:35;101628.66;;;3.83;46.36
52291;BME280;39663;45.432;28.050;2023-03-03T02:03:07;101631.38;;;4.34;46.26
52291;BME280;39663;45.432;28.050;2023-03-03T02:03:39;101630.21;;;4.42;46.00
52291;BME280;39663;45.432;28.050;2023-03-03T02:04:11;101629.99;;;4.53;45.85
52291;BME280;39663;45.432;28.050;2023-03-03T02:04:43;101627.14;;;4.73;45.85
52291;BME280;39663;45.432;28.050;2023-03-03T02:05:15;101630.21;;;4.42;45.88
52291;BME280;39663;45.432;28.050;2023-03-03T02:05:48;101629.00;;;4.34;46.15
52291;BME280;39663;45.432;28.050;2023-03-03T02:06:24;101628.48;;;4.50;46.10
52291;BME280;39663;45.432;28.050;2023-03-03T02:07:00;101626.56;;;4.34;46.32
52291;BME280;39663;45.432;28.050;2023-03-03T02:07:33;101628.68;;;3.93;47.02
52291;BME280;39663;45.432;28.050;2023-03-03T02:08:06;101627.83;;;4.00;46.96
52291;BME280;39663;45.432;28.050;2023-03-03T02:08:46;101627.36;;;4.09;46.67
52291;BME280;39663;45.432;28.050;2023-03-03T02:09:26;101634.66;;;3.16;48.67
52291;BME280;39663;45.432;28.050;2023-03-03T02:10:06;101635.72;;;2.45;49.83
52291;BME280;39663;45.432;28.050;2023-03-03T02:10:38;101638.34;;;2.83;49.88
52291;BME280;39663;45.432;28.050;2023-03-03T02:11:10;101636.86;;;2.52;50.60
52291;BME280;39663;45.432;28.050;2023-03-03T02:11:44;101636.31;;;3.57;48.71
52291;BME280;39663;45.432;28.050;2023-03-03T02:12:20;101634.68;;;3.39;48.56
52291;BME280;39663;45.432;28.050;2023-03-03T02:12:55;101635.85;;;2.40;50.25
52291;BME280;39663;45.432;28.050;2023-03-03T02:13:27;101633.68;;;3.22;48.73
52291;BME280;39663;45.432;28.050;2023-03-03T02:13:58;101632.70;;;3.52;48.43
52291;BME280;39663;45.432;28.050;2023-03-03T02:14:29;101630.16;;;3.47;48.31
52291;BME280;39663;45.432;28.050;2023-03-03T02:15:01;101630.37;;;3.31;48.50
52291;BME280;39663;45.432;28.050;2023-03-03T02:15:33;101630.11;;;3.76;47.72
52291;BME280;39663;45.432;28.050;2023-03-03T02:16:06;101631.10;;;3.16;48.58
52291;BME280;39663;45.432;28.050;2023-03-03T02:16:38;101630.85;;;3.49;48.57
52291;BME280;39663;45.432;28.050;2023-03-03T02:17:09;101631.25;;;3.63;48.29
52291;BME280;39663;45.432;28.050;2023-03-03T02:17:41;101627.84;;;3.95;47.64
52291;BME280;39663;45.432;28.050;2023-03-03T02:18:16;101625.27;;;3.93;47.71
52291;BME280;39663;45.432;28.050;2023-03-03T02:18:49;101625.51;;;3.95;47.96
52291;BME280;39663;45.432;28.050;2023-03-03T02:19:26;101624.04;;;3.86;47.71
52291;BME280;39663;45.432;28.050;2023-03-03T02:20:09;101624.56;;;3.93;47.59
52291;BME280;39663;45.432;28.050;2023-03-03T02:20:51;101628.91;;;2.80;49.87
52291;BME280;39663;45.432;28.050;2023-03-03T02:21:25;101629.61;;;2.39;50.83
52291;BME280;39663;45.432;28.050;2023-03-03T02:21:56;101631.36;;;2.09;51.42
52291;BME280;39663;45.432;28.050;2023-03-03T02:22:35;101633.89;;;1.97;51.86
52291;BME280;39663;45.432;28.050;2023-03-03T02:23:15;101632.87;;;2.80;50.26
52291;BME280;39663;45.432;28.050;2023-03-03T02:23:52;101632.86;;;2.84;50.38
52291;BME280;39663;45.432;28.050;2023-03-03T02:24:26;101634.56;;;2.84;50.35
52291;BME280;39663;45.432;28.050;2023-03-03T02:25:01;101633.54;;;2.68;50.58
52291;BME280;39663;45.432;28.050;2023-03-03T02:25:42;101631.96;;;2.73;50.04
52291;BME280;39663;45.432;28.050;2023-03-03T02:26:20;101629.96;;;3.19;49.58
52291;BME280;39663;45.432;28.050;2023-03-03T02:26:52;101633.00;;;2.98;49.92
52291;BME280;39663;45.432;28.050;2023-03-03T02:27:24;101630.20;;;3.04;49.52
52291;BME280;39663;45.432;28.050;2023-03-03T02:27:56;101629.37;;;3.38;49.00
52291;BME280;39663;45.432;28.050;2023-03-03T02:28:30;101629.55;;;3.70;48.92
52291;BME280;39663;45.432;28.050;2023-03-03T02:29:03;101627.44;;;3.64;48.73
52291;BME280;39663;45.432;28.050;2023-03-03T02:29:34;101628.29;;;3.09;49.11
52291;BME280;39663;45.432;28.050;2023-03-03T02:30:13;101631.13;;;3.06;49.71
52291;BME280;39663;45.432;28.050;2023-03-03T02:30:46;101627.01;;;3.10;49.92
52291;BME280;39663;45.432;28.050;2023-03-03T02:31:19;101627.15;;;3.26;49.24
52291;BME280;39663;45.432;28.050;2023-03-03T02:31:52;101626.55;;;3.33;48.94
52291;BME280;39663;45.432;28.050;2023-03-03T02:32:24;101626.73;;;3.15;49.01
52291;BME280;39663;45.432;28.050;2023-03-03T02:32:55;101624.59;;;3.44;48.81
52291;BME280;39663;45.432;28.050;2023-03-03T02:33:27;101624.29;;;3.16;49.63
52291;BME280;39663;45.432;28.050;2023-03-03T02:33:59;101622.76;;;3.93;48.59
52291;BME280;39663;45.432;28.050;2023-03-03T02:34:41;101622.18;;;3.89;48.63
52291;BME280;39663;45.432;28.050;2023-03-03T02:35:31;101620.70;;;4.03;48.41
52291;BME280;39663;45.432;28.050;2023-03-03T02:36:03;101621.69;;;4.08;47.49
52291;BME280;39663;45.432;28.050;2023-03-03T02:36:37;101622.03;;;4.15;47.83
52291;BME280;39663;45.432;28.050;2023-03-03T02:37:08;101619.09;;;4.29;46.88
52291;BME280;39663;45.432;28.050;2023-03-03T02:37:40;101619.31;;;4.42;46.76
52291;BME280;39663;45.432;28.050;2023-03-03T02:38:19;101620.79;;;4.44;46.58
52291;BME280;39663;45.432;28.050;2023-03-03T02:38:59;101621.41;;;4.39;46.48
52291;BME280;39663;45.432;28.050;2023-03-03T02:39:33;101620.58;;;4.52;46.49
52291;BME280;39663;45.432;28.050;2023-03-03T02:40:07;101617.24;;;4.63;46.08
52291;BME280;39663;45.432;28.050;2023-03-03T02:40:44;101618.07;;;4.57;46.03
52291;BME280;39663;45.432;28.050;2023-03-03T02:41:27;101617.96;;;4.59;46.01
52291;BME280;39663;45.432;28.050;2023-03-03T02:42:02;101617.18;;;4.81;46.03
52291;BME280;39663;45.432;28.050;2023-03-03T02:42:35;101616.00;;;4.31;46.78
52291;BME280;39663;45.432;28.050;2023-03-03T02:43:08;101615.77;;;4.47;46.57
52291;BME280;39663;45.432;28.050;2023-03-03T02:43:45;101615.68;;;4.46;46.54
52291;BME280;39663;45.432;28.050;2023-03-03T02:44:22;101611.95;;;4.25;46.73
52291;BME280;39663;45.432;28.050;2023-03-03T02:44:54;101613.84;;;4.24;47.97
52291;BME280;39663;45.432;28.050;2023-03-03T02:45:25;101617.19;;;4.54;47.69
52291;BME280;39663;45.432;28.050;2023-03-03T02:45:57;101614.80;;;4.68;47.15
52291;BME280;39663;45.432;28.050;2023-03-03T02:46:32;101616.73;;;4.53;47.80
52291;BME280;39663;45.432;28.050;2023-03-03T02:47:04;101617.37;;;4.73;46.45
52291;BME280;39663;45.432;28.050;2023-03-03T02:47:35;101617.46;;;4.91;45.87
52291;BME280;39663;45.432;28.050;2023-03-03T02:48:07;101618.93;;;4.96;46.51
52291;BME280;39663;45.432;28.050;2023-03-03T02:48:38;101619.94;;;4.79;45.98
52291;BME280;39663;45.432;28.050;2023-03-03T02:49:12;101619.08;;;4.81;45.85
52291;BME280;39663;45.432;28.050;2023-03-03T02:49:44;101618.07;;;4.81;46.11
52291;BME280;39663;45.432;28.050;2023-03-03T02:50:15;101619.86;;;4.54;45.99
52291;BME280;39663;45.432;28.050;2023-03-03T02:50:47;101619.19;;;4.88;46.05
52291;BME280;39663;45.432;28.050;2023-03-03T02:51:19;101618.95;;;4.82;45.90
52291;BME280;39663;45.432;28.050;2023-03-03T02:51:50;101616.16;;;4.61;45.79
52291;BME280;39663;45.432;28.050;2023-03-03T02:52:22;101616.38;;;4.72;46.35
52291;BME280;39663;45.432;28.050;2023-03-03T02:52:53;101614.27;;;4.73;46.15
52291;BME280;39663;45.432;28.050;2023-03-03T02:53:25;101612.41;;;4.13;46.82
52291;BME280;39663;45.432;28.050;2023-03-03T02:53:56;101612.26;;;4.03;46.71
52291;BME280;39663;45.432;28.050;2023-03-03T02:54:29;101614.10;;;4.18;46.81
52291;BME280;39663;45.432;28.050;2023-03-03T02:55:00;101613.91;;;4.45;46.72
52291;BME280;39663;45.432;28.050;2023-03-03T02:55:31;101612.79;;;4.15;48.02
52291;BME280;39663;45.432;28.050;2023-03-03T02:56:03;101609.87;;;4.56;46.92
52291;BME280;39663;45.432;28.050;2023-03-03T02:56:35;101610.71;;;4.29;46.77
52291;BME280;39663;45.432;28.050;2023-03-03T02:57:07;101607.76;;;4.32;46.92
52291;BME280;39663;45.432;28.050;2023-03-03T02:57:38;101606.82;;;4.60;47.15
52291;BME280;39663;45.432;28.050;2023-03-03T02:58:10;101608.66;;;4.75;47.50
52291;BME280;39663;45.432;28.050;2023-03-03T02:58:41;101605.01;;;5.00;45.72
52291;BME280;39663;45.432;28.050;2023-03-03T02:59:13;101605.71;;;4.87;46.22
52291;BME280;39663;45.432;28.050;2023-03-03T02:59:44;101603.33;;;4.98;45.51
52291;BME280;39663;45.432;28.050;2023-03-03T03:00:16;101604.61;;;4.79;45.36
52291;BME280;39663;45.432;28.050;2023-03-03T03:00:48;101605.50;;;5.04;45.29
52291;BME280;39663;45.432;28.050;2023-03-03T03:01:19;101604.09;;;4.78;45.01
52291;BME280;39663;45.432;28.050;2023-03-03T03:01:51;101602.92;;;4.87;45.04
52291;BME280;39663;45.432;28.050;2023-03-03T03:02:23;101602.15;;;4.49;45.84
52291;BME280;39663;45.432;28.050;2023-03-03T03:02:54;101603.81;;;4.66;46.51
52291;BME280;39663;45.432;28.050;2023-03-03T03:03:26;101604.54;;;4.81;46.59
52291;BME280;39663;45.432;28.050;2023-03-03T03:03:58;101603.74;;;4.71;46.71
52291;BME280;39663;45.432;28.050;2023-03-03T03:04:29;101602.26;;;4.87;45.75
52291;BME280;39663;45.432;28.050;2023-03-03T03:05:00;101600.28;;;4.99;46.28
52291;BME280;39663;45.432;28.050;2023-03-03T03:05:32;101598.11;;;4.89;46.19
52291;BME280;39663;45.432;28.050;2023-03-03T03:06:04;101597.66;;;5.36;44.60
52291;BME280;39663;45.432;28.050;2023-03-03T03:06:35;101596.42;;;5.32;45.33
52291;BME280;39663;45.432;28.050;2023-03-03T03:07:07;101597.73;;;5.14;45.84
52291;BME280;39663;45.432;28.050;2023-03-03T03:07:38;101596.23;;;5.02;45.79